createdAt,value
2019-01-04T00:02:20.593Z,14.67
2019-01-04T00:04:48.910Z,14.03
2019-01-04T00:07:17.213Z,14.20
2019-01-04T00:09:45.494Z,14.27
2019-01-04T00:12:13.794Z,13.60
2019-01-04T00:14:42.054Z,14.60
2019-01-04T00:17:10.333Z,15.60
2019-01-04T00:19:40.479Z,15.73
2019-01-04T00:22:08.713Z,15.03
2019-01-04T00:24:36.914Z,14.80
2019-01-04T00:27:05.128Z,15.87
2019-01-04T00:29:33.396Z,16.43
2019-01-04T00:32:01.692Z,17.37
2019-01-04T00:34:30.012Z,15.67
2019-01-04T00:36:58.243Z,16.73
2019-01-04T00:39:26.464Z,16.90
2019-01-04T00:41:54.647Z,17.67
2019-01-04T00:44:22.892Z,16.97
2019-01-04T00:46:51.161Z,16.93
2019-01-04T00:49:19.439Z,16.40
2019-01-04T00:51:47.691Z,17.10
2019-01-04T00:54:16.052Z,18.37
2019-01-04T00:56:54.313Z,17.73
2019-01-04T01:01:37.485Z,17.07
2019-01-04T01:04:21.697Z,18.57
2019-01-04T01:07:16.282Z,18.10
2019-01-04T01:09:55.923Z,18.67
2019-01-04T01:12:38.220Z,17.57
2019-01-04T01:16:21.372Z,18.30
2019-01-04T01:19:11.359Z,17.63
2019-01-04T01:21:52.601Z,18.23
2019-01-04T01:24:32.304Z,17.43
2019-01-04T01:29:17.500Z,18.63
2019-01-04T01:31:56.896Z,18.47
2019-01-04T01:34:36.472Z,18.30
2019-01-04T01:38:14.372Z,17.07
2019-01-04T01:41:56.579Z,18.47
2019-01-04T01:46:38.396Z,17.00
2019-01-04T01:51:27.217Z,17.93
2019-01-04T01:53:55.454Z,17.60
2019-01-04T01:56:23.673Z,17.83
2019-01-04T01:58:51.902Z,19.13
2019-01-04T02:01:20.133Z,16.90
2019-01-04T02:03:48.381Z,17.77
2019-01-04T02:06:16.657Z,18.20
2019-01-04T02:08:44.886Z,20.33
2019-01-04T02:11:13.127Z,18.93
2019-01-04T02:13:41.365Z,18.77
2019-01-04T02:16:09.661Z,19.00
2019-01-04T02:18:37.997Z,19.00
2019-01-04T02:21:07.008Z,18.90
2019-01-04T02:23:35.278Z,19.60
2019-01-04T02:26:04.871Z,19.47
2019-01-04T02:28:33.118Z,19.43
2019-01-04T02:31:01.337Z,18.47
2019-01-04T02:33:29.550Z,18.30
2019-01-04T02:35:57.806Z,18.10
2019-01-04T02:38:26.017Z,18.93
2019-01-04T02:40:54.293Z,18.33
2019-01-04T02:43:22.573Z,18.00
2019-01-04T02:45:50.865Z,20.50
2019-01-04T02:48:19.118Z,19.70
2019-01-04T02:50:47.376Z,20.37
2019-01-04T02:53:15.682Z,18.73
2019-01-04T02:55:43.949Z,21.20
2019-01-04T02:58:12.191Z,18.77
2019-01-04T03:00:40.485Z,18.30
2019-01-04T03:03:08.747Z,19.23
2019-01-04T03:05:37.210Z,19.77
2019-01-04T03:08:05.451Z,18.30
2019-01-04T03:10:33.714Z,19.07
2019-01-04T03:13:01.990Z,18.50
2019-01-04T03:15:30.211Z,18.57
2019-01-04T03:17:58.923Z,18.00
2019-01-04T03:20:27.213Z,18.77
2019-01-04T03:22:55.441Z,18.43
2019-01-04T03:25:25.306Z,17.77
2019-01-04T03:27:53.574Z,16.97
2019-01-04T03:30:21.772Z,18.47
2019-01-04T03:32:50.061Z,18.00
2019-01-04T03:35:18.289Z,20.10
2019-01-04T03:37:46.494Z,17.53
2019-01-04T03:40:14.734Z,19.40
2019-01-04T03:42:42.933Z,18.40
2019-01-04T03:45:11.230Z,18.13
2019-01-04T03:47:39.498Z,18.93
2019-01-04T03:50:07.751Z,17.90
2019-01-04T03:52:36.086Z,19.37
2019-01-04T03:55:04.366Z,17.83
2019-01-04T03:57:32.589Z,18.83
2019-01-04T04:00:00.886Z,19.07
2019-01-04T04:05:22.286Z,18.97
2019-01-04T04:07:50.508Z,17.50
2019-01-04T04:10:18.690Z,19.37
2019-01-04T04:12:47.538Z,18.17
2019-01-04T04:15:15.680Z,18.87
2019-01-04T04:17:43.881Z,18.47
2019-01-04T04:20:12.052Z,17.97
2019-01-04T04:22:40.232Z,17.13
2019-01-04T04:25:08.478Z,18.00
2019-01-04T04:27:36.720Z,19.17
2019-01-04T04:30:06.010Z,17.93
2019-01-04T04:32:34.315Z,18.33
2019-01-04T04:35:02.544Z,17.83
2019-01-04T04:37:30.875Z,17.80
2019-01-04T04:39:59.105Z,19.03
2019-01-04T04:42:27.409Z,18.63
2019-01-04T04:44:55.654Z,17.83
2019-01-04T04:47:26.349Z,17.90
2019-01-04T04:49:54.721Z,16.50
2019-01-04T04:52:22.954Z,20.10
2019-01-04T04:54:51.191Z,17.77
2019-01-04T04:57:19.538Z,17.13
2019-01-04T04:59:47.755Z,17.57
2019-01-04T05:02:16.027Z,16.80
2019-01-04T05:04:44.294Z,17.63
2019-01-04T05:07:12.545Z,16.70
2019-01-04T05:09:40.794Z,16.33
2019-01-04T05:12:09.024Z,17.00
2019-01-04T05:14:37.226Z,16.63
2019-01-04T05:17:06.433Z,16.50
2019-01-04T05:19:35.121Z,16.37
2019-01-04T05:22:03.886Z,15.43
2019-01-04T05:24:32.184Z,15.83
2019-01-04T05:27:00.443Z,16.23
2019-01-04T05:29:28.753Z,16.00
2019-01-04T05:31:57.033Z,15.37
2019-01-04T05:34:25.277Z,15.63
2019-01-04T05:36:53.537Z,15.30
2019-01-04T05:39:21.789Z,15.50
2019-01-04T05:41:50.061Z,14.67
2019-01-04T05:44:18.305Z,16.53
2019-01-04T05:46:46.561Z,14.57
2019-01-04T05:49:14.861Z,15.03
2019-01-04T05:51:43.157Z,15.27
2019-01-04T05:54:11.393Z,14.50
2019-01-04T05:56:40.190Z,14.30
2019-01-04T05:59:08.430Z,13.90
2019-01-04T06:01:36.761Z,13.40
2019-01-04T06:04:04.990Z,14.80
2019-01-04T06:06:33.270Z,14.50
2019-01-04T06:09:01.458Z,14.20
2019-01-04T06:11:30.294Z,13.07
2019-01-04T06:13:58.537Z,16.67
2019-01-04T06:16:26.779Z,14.30
2019-01-04T06:18:55.050Z,14.20
2019-01-04T06:21:23.398Z,14.17
2019-01-04T06:23:51.584Z,14.60
2019-01-04T06:26:19.859Z,13.93
2019-01-04T06:28:48.165Z,14.20
2019-01-04T06:31:16.423Z,14.63
2019-01-04T06:33:44.678Z,13.73
2019-01-04T06:36:13.004Z,14.37
2019-01-04T06:38:41.253Z,14.50
2019-01-04T06:41:09.554Z,14.80
2019-01-04T06:43:37.762Z,14.73
2019-01-04T06:50:52.938Z,13.80
2019-01-04T06:53:21.170Z,18.12
2019-01-04T06:55:57.782Z,15.60
2019-01-04T06:58:26.106Z,16.30
2019-01-04T07:00:54.461Z,14.03
2019-01-04T07:03:23.817Z,16.93
2019-01-04T07:05:52.284Z,14.73
2019-01-04T07:08:20.529Z,15.07
2019-01-04T07:10:49.466Z,14.87
2019-01-04T07:13:17.718Z,15.97
2019-01-04T07:15:45.981Z,15.07
2019-01-04T07:18:14.375Z,14.07
2019-01-04T07:20:43.245Z,16.67
2019-01-04T07:23:11.469Z,15.13
2019-01-04T07:25:39.734Z,15.60
2019-01-04T07:28:07.957Z,15.37
2019-01-04T07:30:36.244Z,16.70
2019-01-04T07:33:04.529Z,15.10
2019-01-04T07:35:32.807Z,15.10
2019-01-04T07:38:01.026Z,15.63
2019-01-04T07:40:29.277Z,15.40
2019-01-04T07:42:58.125Z,14.50
2019-01-04T07:45:27.473Z,15.87
2019-01-04T07:47:56.385Z,15.40
2019-01-04T07:50:24.621Z,17.03
2019-01-04T07:52:52.848Z,15.37
2019-01-04T07:55:21.708Z,16.07
2019-01-04T07:57:49.949Z,15.37
2019-01-04T08:00:18.550Z,15.17
2019-01-04T08:02:48.226Z,14.43
2019-01-04T08:05:21.988Z,15.47
2019-01-04T08:07:52.185Z,15.07
2019-01-04T08:10:20.524Z,15.20
2019-01-04T08:12:48.765Z,15.43
2019-01-04T08:15:17.980Z,15.93
2019-01-04T08:17:46.260Z,14.70
2019-01-04T08:20:14.560Z,15.50
2019-01-04T08:22:42.803Z,15.27
2019-01-04T08:25:11.129Z,15.40
2019-01-04T08:27:39.405Z,15.50
2019-01-04T08:30:17.010Z,15.23
2019-01-04T08:32:45.238Z,14.87
2019-01-04T08:35:13.508Z,15.27
2019-01-04T08:37:41.737Z,15.03
2019-01-04T08:40:11.154Z,14.97
2019-01-04T08:42:39.389Z,15.87
2019-01-04T08:45:09.517Z,14.90
2019-01-04T08:47:37.711Z,14.97
2019-01-04T08:50:07.337Z,15.50
2019-01-04T08:52:35.594Z,15.07
2019-01-04T08:55:04.161Z,15.50
2019-01-04T08:57:32.393Z,16.23
2019-01-04T09:00:00.607Z,16.70
2019-01-04T09:02:28.821Z,15.97
2019-01-04T09:04:57.087Z,15.70
2019-01-04T09:07:25.951Z,16.70
2019-01-04T09:09:54.241Z,15.93
2019-01-04T09:12:22.475Z,17.00
2019-01-04T09:14:50.728Z,15.53
2019-01-04T09:17:18.913Z,16.13
2019-01-04T09:19:47.068Z,15.33
2019-01-04T09:22:15.833Z,15.07
2019-01-04T09:24:43.442Z,15.97
2019-01-04T09:27:11.605Z,15.97
2019-01-04T09:29:40.000Z,15.03
2019-01-04T09:32:08.204Z,15.67
2019-01-04T09:34:36.404Z,17.10
2019-01-04T09:37:05.209Z,16.27
2019-01-04T09:39:33.472Z,17.93
2019-01-04T09:42:09.270Z,17.47
2019-01-04T09:44:38.460Z,16.70
2019-01-04T09:47:06.814Z,17.70
2019-01-04T09:49:34.994Z,17.40
2019-01-04T09:52:03.900Z,17.57
2019-01-04T09:54:32.156Z,18.43
2019-01-04T09:57:00.401Z,17.17
2019-01-04T09:59:29.342Z,18.17
2019-01-04T10:01:57.649Z,18.80
2019-01-04T10:04:25.900Z,18.83
2019-01-04T10:06:54.117Z,19.43
2019-01-04T10:09:22.357Z,18.53
2019-01-04T10:11:50.619Z,18.40
2019-01-04T10:14:18.837Z,19.17
2019-01-04T10:16:47.097Z,19.20
2019-01-04T10:19:16.053Z,18.87
2019-01-04T10:21:45.279Z,19.30
2019-01-04T10:24:13.523Z,20.03
2019-01-04T10:26:41.969Z,18.40
2019-01-04T10:29:10.238Z,17.97
2019-01-04T10:31:38.490Z,18.50
2019-01-04T10:34:06.749Z,19.13
2019-01-04T10:36:35.013Z,18.87
2019-01-04T10:39:03.600Z,18.63
2019-01-04T10:41:31.830Z,18.90
2019-01-04T10:44:00.369Z,20.67
2019-01-04T10:46:28.601Z,18.50
2019-01-04T10:48:56.851Z,17.87
2019-01-04T10:51:25.048Z,19.97
2019-01-04T10:53:53.359Z,19.00
2019-01-04T10:56:21.600Z,19.50
2019-01-04T10:58:49.805Z,19.33
2019-01-04T11:01:18.917Z,17.87
2019-01-04T11:03:47.756Z,19.73
2019-01-04T11:06:16.001Z,18.67
2019-01-04T11:08:44.244Z,18.87
2019-01-04T11:11:12.492Z,19.80
2019-01-04T11:13:40.665Z,19.10
2019-01-04T11:16:08.907Z,19.60
2019-01-04T11:18:37.869Z,21.17
2019-01-04T11:21:07.925Z,20.27
2019-01-04T11:25:54.133Z,19.07
2019-01-04T11:28:29.109Z,18.67
2019-01-04T11:31:09.305Z,19.67
2019-01-04T11:33:45.689Z,19.40
2019-01-04T11:36:26.108Z,20.70
2019-01-04T11:39:35.442Z,20.20
2019-01-04T11:43:17.469Z,19.50
2019-01-04T11:45:58.614Z,17.93
2019-01-04T11:48:38.809Z,18.53
2019-01-04T11:51:15.013Z,16.80
2019-01-04T11:53:43.392Z,16.53
2019-01-04T11:56:11.654Z,17.87
2019-01-04T11:58:40.917Z,18.63
2019-01-04T12:01:09.442Z,17.93
2019-01-04T12:03:37.736Z,18.57
2019-01-04T12:06:05.945Z,18.30
2019-01-04T12:08:34.193Z,18.70
2019-01-04T12:11:02.478Z,18.40
2019-01-04T12:13:31.804Z,19.03
2019-01-04T12:16:00.063Z,19.83
2019-01-04T12:18:28.335Z,19.17
2019-01-04T12:20:56.586Z,19.57
2019-01-04T12:23:24.882Z,19.77
2019-01-04T12:25:53.150Z,18.53
2019-01-04T12:28:21.398Z,18.10
2019-01-04T12:30:49.666Z,18.80
2019-01-04T12:33:17.909Z,18.30
2019-01-04T12:35:46.119Z,18.90
2019-01-04T12:38:14.344Z,19.60
2019-01-04T12:40:42.598Z,19.93
2019-01-04T12:43:10.841Z,17.80
2019-01-04T12:45:39.340Z,18.63
2019-01-04T12:48:07.588Z,19.33
2019-01-04T12:50:35.833Z,17.77
2019-01-04T12:53:04.199Z,19.50
2019-01-04T12:55:32.439Z,19.17
2019-01-04T12:58:00.616Z,18.03
2019-01-04T13:00:28.847Z,18.07
2019-01-04T13:02:57.146Z,19.10
2019-01-04T13:05:25.386Z,19.97
2019-01-04T13:07:53.622Z,18.27
2019-01-04T13:10:21.851Z,17.90
2019-01-04T13:12:50.122Z,19.23
2019-01-04T13:15:19.142Z,19.67
2019-01-04T13:17:47.434Z,19.10
2019-01-04T13:20:15.681Z,18.73
2019-01-04T13:22:43.920Z,18.30
2019-01-04T13:25:12.178Z,18.00
2019-01-04T13:27:40.416Z,18.10
2019-01-04T13:30:09.774Z,17.13
2019-01-04T13:32:37.998Z,16.80
2019-01-04T13:35:06.423Z,17.90
2019-01-04T13:37:34.662Z,18.83
2019-01-04T13:40:02.953Z,17.57
2019-01-04T13:42:31.208Z,17.33
2019-01-04T13:44:59.441Z,18.00
2019-01-04T13:47:32.192Z,17.80
2019-01-04T13:49:55.933Z,17.37
2019-01-04T13:52:24.137Z,16.33
2019-01-04T13:54:52.468Z,17.53
2019-01-04T13:57:20.785Z,17.67
2019-01-04T13:59:49.119Z,17.40
2019-01-04T14:02:17.361Z,16.80
2019-01-04T14:04:45.572Z,17.27
2019-01-04T14:07:13.912Z,15.10
2019-01-04T14:09:42.093Z,17.97
2019-01-04T14:12:10.385Z,16.00
2019-01-04T14:14:38.929Z,15.13
2019-01-04T14:17:07.157Z,15.13
2019-01-04T14:19:35.397Z,14.93
2019-01-04T14:22:03.677Z,15.00
2019-01-04T14:24:31.969Z,14.37
2019-01-04T14:27:00.258Z,14.13
2019-01-04T14:29:28.483Z,14.90
2019-01-04T14:31:56.706Z,13.67
2019-01-04T14:34:24.904Z,14.23
2019-01-04T14:36:53.227Z,14.33
2019-01-04T14:39:21.491Z,14.63
2019-01-04T14:41:50.280Z,14.17
2019-01-04T14:44:18.561Z,12.63
2019-01-04T14:46:46.872Z,13.43
2019-01-04T14:49:15.198Z,13.80
2019-01-04T14:51:43.649Z,13.10
2019-01-04T14:54:12.408Z,13.33
2019-01-04T14:56:40.772Z,15.33
2019-01-04T14:59:09.173Z,15.53
2019-01-04T15:01:37.472Z,16.13
2019-01-04T15:04:05.756Z,16.57
2019-01-04T15:06:34.663Z,17.07
2019-01-04T15:09:03.117Z,16.67
2019-01-04T15:11:31.510Z,17.40
2019-01-04T15:14:00.346Z,18.83
2019-01-04T15:16:28.658Z,20.27
2019-01-04T15:18:57.066Z,17.30
2019-01-04T15:21:25.269Z,17.67
2019-01-04T15:23:54.443Z,16.83
2019-01-04T15:26:21.776Z,16.10
2019-01-04T15:28:50.014Z,15.53
2019-01-04T15:31:18.883Z,14.87
2019-01-04T15:33:47.408Z,15.53
2019-01-04T15:36:15.608Z,13.95
2019-01-04T15:38:43.797Z,12.40
2019-01-04T15:44:15.239Z,12.87
2019-01-04T15:46:43.407Z,12.53
2019-01-04T15:49:11.556Z,11.70
2019-01-04T15:51:39.718Z,11.83
2019-01-04T15:54:07.924Z,12.13
2019-01-04T15:56:36.194Z,11.13
2019-01-04T15:59:04.493Z,10.17
2019-01-04T16:01:32.778Z,10.70
2019-01-04T16:04:01.041Z,10.47
2019-01-04T16:06:29.241Z,9.47
2019-01-04T16:08:57.571Z,8.97
2019-01-04T16:11:25.910Z,11.53
2019-01-04T16:13:54.174Z,9.73
2019-01-04T16:16:22.392Z,10.43
2019-01-04T16:20:19.552Z,8.47
2019-01-04T16:22:47.766Z,8.78
2019-01-04T16:25:20.552Z,8.30
2019-01-04T16:27:48.998Z,8.63
2019-01-04T16:30:17.225Z,6.93
2019-01-04T16:32:45.461Z,7.50
2019-01-04T16:35:13.711Z,7.23
2019-01-04T16:37:41.981Z,7.33
2019-01-04T16:40:10.161Z,6.80
2019-01-04T16:42:38.397Z,7.73
2019-01-04T16:45:06.709Z,7.70
2019-01-04T16:47:34.934Z,7.77
2019-01-04T16:50:03.266Z,8.67
2019-01-04T16:52:31.518Z,10.53
2019-01-04T16:54:59.828Z,9.27
2019-01-04T16:57:28.090Z,8.43
2019-01-04T16:59:56.381Z,9.30
2019-01-04T17:02:24.625Z,7.73
2019-01-04T17:04:52.817Z,7.97
2019-01-04T17:07:21.005Z,8.10
2019-01-04T17:09:49.181Z,8.80
2019-01-04T17:12:17.387Z,8.90
2019-01-04T17:14:45.616Z,9.37
2019-01-04T17:17:13.804Z,9.33
2019-01-04T17:19:42.085Z,9.97
2019-01-04T17:22:10.257Z,9.30
2019-01-04T17:24:38.484Z,9.87
2019-01-04T17:27:06.675Z,9.87
2019-01-04T17:29:34.861Z,10.07
2019-01-04T17:32:03.146Z,10.47
2019-01-04T17:34:31.354Z,10.23
2019-01-04T17:36:59.549Z,10.27
2019-01-04T17:39:27.813Z,10.63
2019-01-04T17:41:56.054Z,10.23
2019-01-04T17:44:24.279Z,11.10
2019-01-04T17:46:52.553Z,10.60
2019-01-04T17:49:20.839Z,11.03
2019-01-04T17:51:49.094Z,10.33
2019-01-04T17:54:17.335Z,11.23
2019-01-04T17:56:45.648Z,10.90
2019-01-04T17:59:13.841Z,10.87
2019-01-04T18:01:42.052Z,11.43
2019-01-04T18:04:10.252Z,11.33
2019-01-04T18:06:38.521Z,11.97
2019-01-04T18:09:07.585Z,11.90
2019-01-04T18:11:35.884Z,12.60
2019-01-04T18:14:04.197Z,13.23
2019-01-04T18:16:32.477Z,13.00
2019-01-04T18:19:00.701Z,13.67
2019-01-04T18:21:28.917Z,14.60
2019-01-04T18:23:57.124Z,15.03
2019-01-04T18:26:25.325Z,14.23
2019-01-04T18:28:53.572Z,14.37
2019-01-04T18:31:21.793Z,14.63
2019-01-04T18:33:49.980Z,14.33
2019-01-04T18:36:18.205Z,14.07
2019-01-04T18:38:46.443Z,15.47
2019-01-04T18:41:14.666Z,15.13
2019-01-04T18:43:42.895Z,16.27
2019-01-04T18:46:11.093Z,16.27
2019-01-04T18:48:39.312Z,16.70
2019-01-04T18:51:07.564Z,16.67
2019-01-04T18:53:35.808Z,18.03
2019-01-04T18:56:04.017Z,17.53
2019-01-04T18:58:32.245Z,17.27
2019-01-04T19:01:00.493Z,17.07
2019-01-04T19:03:28.684Z,17.20
2019-01-04T19:05:56.945Z,17.07
2019-01-04T19:08:25.144Z,17.83
2019-01-04T19:10:53.421Z,17.27
2019-01-04T19:13:26.780Z,18.73
2019-01-04T19:15:49.905Z,18.77
2019-01-04T19:18:18.069Z,18.17
2019-01-04T19:20:46.388Z,18.73
2019-01-04T19:23:14.579Z,19.57
2019-01-04T19:25:42.803Z,18.17
2019-01-04T19:28:11.098Z,18.80
2019-01-04T19:30:39.308Z,18.80
2019-01-04T19:33:07.509Z,17.63
2019-01-04T19:35:35.795Z,17.63
2019-01-04T19:38:04.032Z,18.17
2019-01-04T19:40:32.235Z,18.63
2019-01-04T19:43:00.476Z,18.63
2019-01-04T19:45:28.658Z,18.93
2019-01-04T19:47:56.876Z,18.77
2019-01-04T19:50:25.136Z,19.13
2019-01-04T19:52:53.405Z,19.60
2019-01-04T19:55:21.715Z,19.07
2019-01-04T19:57:49.937Z,20.33
2019-01-04T20:00:18.259Z,20.10
2019-01-04T20:02:46.459Z,19.47
2019-01-04T20:05:34.293Z,19.80
2019-01-04T20:08:26.374Z,20.77
2019-01-04T20:11:11.137Z,21.07
2019-01-04T20:18:12.893Z,19.60
2019-01-04T20:21:55.041Z,19.87
2019-01-04T20:24:28.538Z,21.03
2019-01-04T20:27:04.042Z,21.23
2019-01-04T20:29:42.465Z,21.70
2019-01-04T20:32:14.914Z,21.40
2019-01-04T20:35:07.447Z,22.77
2019-01-04T20:39:44.912Z,21.47
2019-01-04T20:42:18.568Z,22.20
2019-01-04T20:45:04.165Z,21.67
2019-01-04T20:47:37.673Z,22.33
2019-01-04T20:50:16.942Z,21.63
2019-01-04T20:53:08.752Z,22.87
2019-01-04T20:56:08.227Z,23.33
2019-01-04T20:58:49.821Z,22.83
2019-01-04T21:01:30.082Z,22.47
2019-01-04T21:04:12.669Z,23.20
2019-01-04T21:06:46.296Z,24.07
2019-01-04T21:09:23.706Z,23.73
2019-01-04T21:11:58.154Z,22.27
2019-01-04T21:14:31.613Z,22.67
2019-01-04T21:17:05.235Z,23.30
2019-01-04T21:19:39.681Z,23.10
2019-01-04T21:22:13.056Z,23.87
2019-01-04T21:24:48.429Z,22.53
2019-01-04T21:27:32.426Z,22.53
2019-01-04T21:30:05.462Z,24.43
2019-01-04T21:32:42.997Z,23.67
2019-01-04T21:35:16.498Z,23.37
2019-01-04T21:37:49.934Z,24.27
2019-01-04T21:40:23.576Z,22.90
2019-01-04T21:43:30.272Z,24.47
2019-01-04T21:46:04.793Z,23.47
2019-01-04T21:48:45.091Z,23.73
2019-01-04T21:51:18.740Z,24.57
2019-01-04T21:55:55.780Z,23.57
2019-01-04T21:58:29.419Z,23.50
2019-01-04T22:01:03.108Z,23.53
2019-01-04T22:03:36.777Z,23.00
2019-01-04T22:07:14.878Z,23.77
2019-01-04T22:10:18.503Z,23.07
2019-01-04T22:12:56.786Z,23.83
2019-01-04T22:15:36.263Z,23.10
2019-01-04T22:18:10.000Z,24.10
2019-01-04T22:20:42.468Z,23.07
2019-01-04T22:23:16.818Z,24.03
2019-01-04T22:25:50.298Z,23.07
2019-01-04T22:30:27.681Z,23.03
2019-01-04T22:33:01.404Z,21.67
2019-01-04T22:35:34.677Z,21.13
2019-01-04T22:38:14.880Z,20.13
2019-01-04T22:40:48.404Z,20.77
2019-01-04T22:43:22.014Z,22.30
2019-01-04T22:45:56.388Z,21.63
2019-01-04T22:48:32.783Z,21.53
2019-01-04T22:51:06.330Z,20.60
2019-01-04T22:53:51.756Z,21.70
2019-01-04T22:56:25.224Z,21.07
2019-01-04T23:00:01.355Z,20.67
2019-01-04T23:02:35.099Z,19.93
2019-01-04T23:05:11.557Z,20.33
2019-01-04T23:07:45.005Z,20.03
2019-01-04T23:11:19.151Z,19.93
2019-01-04T23:13:52.654Z,19.37
2019-01-04T23:16:26.254Z,19.60
2019-01-04T23:19:02.590Z,18.37
2019-01-04T23:23:58.099Z,17.33
2019-01-04T23:26:31.789Z,16.40
2019-01-04T23:29:19.249Z,17.77
2019-01-04T23:33:57.764Z,16.37
2019-01-04T23:38:37.380Z,17.23
2019-01-04T23:41:10.857Z,17.10
2019-01-04T23:43:45.314Z,16.60
2019-01-04T23:46:18.744Z,17.30
2019-01-04T23:49:52.957Z,17.07
2019-01-04T23:52:26.273Z,17.67
2019-01-04T23:54:59.839Z,18.97
2019-01-04T23:57:47.706Z,17.67
